createdAt,value
2023-04-27T00:02:20.959Z,101007.19
2023-04-27T00:04:50.996Z,101003.91
2023-04-27T00:07:19.008Z,101014.03
2023-04-27T00:09:46.783Z,101009.31
2023-04-27T00:12:15.217Z,101000.94
2023-04-27T00:14:43.011Z,101000.50
2023-04-27T00:17:10.978Z,100999.22
2023-04-27T00:19:40.207Z,100997.94
2023-04-27T00:22:09.614Z,100991.03
2023-04-27T00:24:37.450Z,100990.75
2023-04-27T00:27:06.275Z,100991.97
2023-04-27T00:29:34.290Z,100987.03
2023-04-27T00:32:02.158Z,100981.28
2023-04-27T00:34:30.562Z,100977.22
2023-04-27T00:36:58.865Z,100975.66
2023-04-27T00:39:27.996Z,100988.69
2023-04-27T00:41:56.351Z,100983.78
2023-04-27T00:44:25.142Z,100995.53
2023-04-27T00:46:53.711Z,100988.97
2023-04-27T00:49:23.086Z,100993.00
2023-04-27T00:51:50.960Z,100994.16
2023-04-27T00:54:21.838Z,100997.81
2023-04-27T00:56:52.258Z,100987.59
2023-04-27T00:59:20.540Z,101001.34
2023-04-27T01:01:48.735Z,100995.63
2023-04-27T01:04:17.349Z,100989.88
2023-04-27T01:06:45.543Z,100994.50
2023-04-27T01:09:13.916Z,100982.50
2023-04-27T01:11:42.528Z,100986.16
2023-04-27T01:14:11.718Z,100981.88
2023-04-27T01:16:39.554Z,100984.81
2023-04-27T01:19:09.329Z,100981.91
2023-04-27T01:21:36.904Z,100981.88
2023-04-27T01:24:07.488Z,100975.28
2023-04-27T01:26:36.238Z,100971.34
2023-04-27T01:29:04.053Z,100976.97
2023-04-27T01:31:32.233Z,100980.97
2023-04-27T01:34:00.829Z,100983.19
2023-04-27T01:36:28.746Z,100975.59
2023-04-27T01:38:56.642Z,100977.78
2023-04-27T01:41:26.429Z,100970.03
2023-04-27T01:43:54.199Z,100965.31
2023-04-27T01:46:22.117Z,100962.03
2023-04-27T01:48:50.429Z,100969.28
2023-04-27T01:51:18.206Z,100965.41
2023-04-27T01:53:45.993Z,100966.38
2023-04-27T01:56:13.814Z,100972.03
2023-04-27T01:58:43.026Z,100968.72
2023-04-27T02:01:11.484Z,100968.09
2023-04-27T02:03:39.803Z,100964.84
2023-04-27T02:06:08.223Z,100966.81
2023-04-27T02:08:36.024Z,100952.00
2023-04-27T02:11:04.308Z,100958.31
2023-04-27T02:13:32.063Z,100957.97
2023-04-27T02:16:02.208Z,100960.63
2023-04-27T02:18:30.419Z,100960.31
2023-04-27T02:20:58.172Z,100948.16
2023-04-27T02:23:26.045Z,100944.03
2023-04-27T02:25:54.169Z,100955.78
2023-04-27T02:28:21.969Z,100956.94
2023-04-27T02:30:50.213Z,100951.84
2023-04-27T02:33:19.747Z,100950.38
2023-04-27T02:35:47.514Z,100956.00
2023-04-27T02:38:15.774Z,100958.78
2023-04-27T02:40:44.076Z,100955.53
2023-04-27T02:43:11.981Z,100954.06
2023-04-27T02:45:39.763Z,100960.69
2023-04-27T02:48:08.287Z,100962.84
2023-04-27T02:50:41.906Z,100958.22
2023-04-27T02:53:10.230Z,100958.59
2023-04-27T02:55:38.420Z,100966.19
2023-04-27T02:58:06.234Z,100947.91
2023-04-27T03:00:34.623Z,100951.72
2023-04-27T03:03:03.017Z,100955.34
2023-04-27T03:05:31.809Z,100954.06
2023-04-27T03:08:01.869Z,100953.25
2023-04-27T03:10:29.698Z,100959.03
2023-04-27T03:12:57.476Z,100961.00
2023-04-27T03:15:25.586Z,100962.19
2023-04-27T03:17:53.460Z,100967.63
2023-04-27T03:20:23.013Z,100961.69
2023-04-27T03:22:51.119Z,100968.16
2023-04-27T03:25:20.470Z,100971.59
2023-04-27T03:27:48.262Z,100964.84
2023-04-27T03:30:16.850Z,100971.31
2023-04-27T03:32:47.063Z,100967.19
2023-04-27T03:35:15.767Z,100971.63
2023-04-27T03:37:46.247Z,100974.44
2023-04-27T03:40:15.494Z,100969.50
2023-04-27T03:42:44.674Z,100969.69
2023-04-27T03:45:13.203Z,100976.09
2023-04-27T03:47:41.179Z,100972.03
2023-04-27T03:50:09.825Z,100975.66
2023-04-27T03:52:37.910Z,100970.53
2023-04-27T03:55:07.308Z,100973.34
2023-04-27T03:57:35.118Z,100974.53
2023-04-27T04:00:11.419Z,100974.53
2023-04-27T04:02:39.388Z,100971.59
2023-04-27T04:05:07.751Z,100976.38
2023-04-27T04:07:35.940Z,100978.34
2023-04-27T04:10:03.876Z,100980.31
2023-04-27T04:12:31.703Z,100983.97
2023-04-27T04:14:59.826Z,100981.84
2023-04-27T04:17:29.313Z,100986.28
2023-04-27T04:19:57.114Z,100983.97
2023-04-27T04:22:25.288Z,100986.97
2023-04-27T04:24:53.586Z,100980.03
2023-04-27T04:27:21.403Z,100976.75
2023-04-27T04:29:49.466Z,100975.75
2023-04-27T04:32:19.562Z,100985.38
2023-04-27T04:34:52.053Z,100982.66
2023-04-27T04:37:19.816Z,100987.50
2023-04-27T04:39:47.628Z,100984.94
2023-04-27T04:42:16.107Z,100977.91
2023-04-27T04:44:44.662Z,100976.84
2023-04-27T04:47:13.106Z,100976.31
2023-04-27T04:49:41.624Z,100981.41
2023-04-27T04:52:10.861Z,100982.72
2023-04-27T04:54:38.624Z,100984.69
2023-04-27T04:57:08.174Z,100984.50
2023-04-27T04:59:36.038Z,100981.72
2023-04-27T05:02:03.825Z,100988.63
2023-04-27T05:04:32.853Z,100982.34
2023-04-27T05:07:01.258Z,100983.00
2023-04-27T05:09:30.482Z,100991.53
2023-04-27T05:11:58.822Z,100999.13
2023-04-27T05:14:26.947Z,100998.75
2023-04-27T05:16:54.712Z,100999.22
2023-04-27T05:19:22.698Z,101000.50
2023-04-27T05:21:50.532Z,101001.78
2023-04-27T05:24:18.342Z,101013.44
2023-04-27T05:26:48.138Z,101008.47
2023-04-27T05:29:16.422Z,101010.56
2023-04-27T05:31:44.500Z,101013.66
2023-04-27T05:34:13.741Z,101013.09
2023-04-27T05:36:41.562Z,101016.03
2023-04-27T05:39:09.377Z,101005.94
2023-04-27T05:41:37.296Z,101020.28
2023-04-27T05:44:06.652Z,101006.53
2023-04-27T05:46:36.441Z,101007.97
2023-04-27T05:49:05.823Z,101015.19
2023-04-27T05:51:34.288Z,101010.34
2023-04-27T05:54:02.202Z,101006.53
2023-04-27T05:56:30.562Z,101003.72
2023-04-27T05:58:59.476Z,101011.09
2023-04-27T06:01:29.717Z,101006.09
2023-04-27T06:04:02.052Z,101015.47
2023-04-27T06:06:32.960Z,101015.56
2023-04-27T06:09:01.288Z,101022.28
2023-04-27T06:11:29.194Z,101011.81
2023-04-27T06:13:57.059Z,101015.53
2023-04-27T06:16:25.547Z,101017.44
2023-04-27T06:18:54.746Z,101015.06
2023-04-27T06:21:22.498Z,101016.00
2023-04-27T06:23:51.085Z,101025.00
2023-04-27T06:26:18.880Z,101019.78
2023-04-27T06:28:46.775Z,101020.66
2023-04-27T06:31:15.882Z,101028.50
2023-04-27T06:33:43.727Z,101024.94
2023-04-27T06:36:12.905Z,101009.75
2023-04-27T06:38:41.654Z,101028.16
2023-04-27T06:41:09.497Z,101016.81
2023-04-27T06:43:37.286Z,101019.34
2023-04-27T06:46:06.705Z,101012.66
2023-04-27T06:48:35.029Z,101018.47
2023-04-27T06:51:02.810Z,101006.13
2023-04-27T06:53:32.566Z,101009.47
2023-04-27T06:56:00.442Z,101012.97
2023-04-27T06:58:28.272Z,100995.50
2023-04-27T07:00:57.922Z,100997.19
2023-04-27T07:03:25.924Z,100998.84
2023-04-27T07:05:54.160Z,100996.88
2023-04-27T07:08:22.556Z,100994.09
2023-04-27T07:10:51.762Z,100992.09
2023-04-27T07:13:19.577Z,101001.50
2023-04-27T07:15:47.954Z,100997.91
2023-04-27T07:18:16.026Z,101005.66
2023-04-27T07:20:43.977Z,101002.44
2023-04-27T07:23:12.292Z,100990.03
2023-04-27T07:25:40.463Z,101001.69
2023-04-27T07:28:09.922Z,101007.00
2023-04-27T07:30:38.601Z,101005.59
2023-04-27T07:33:07.234Z,100997.66
2023-04-27T07:35:35.384Z,100998.50
2023-04-27T07:38:04.361Z,100999.16
2023-04-27T07:40:32.776Z,101001.41
2023-04-27T07:43:00.622Z,100997.56
2023-04-27T07:45:33.465Z,100989.22
2023-04-27T07:48:02.476Z,100986.38
2023-04-27T07:50:31.029Z,100990.47
2023-04-27T07:52:59.406Z,100983.72
2023-04-27T07:55:28.665Z,100988.41
2023-04-27T07:57:57.763Z,100988.81
2023-04-27T08:00:26.968Z,100979.84
2023-04-27T08:02:56.591Z,100984.91
2023-04-27T08:05:25.025Z,100983.28
2023-04-27T08:07:54.828Z,100989.16
2023-04-27T08:10:22.614Z,100980.59
2023-04-27T08:12:50.720Z,100985.66
2023-04-27T08:15:19.214Z,100975.44
2023-04-27T08:17:47.362Z,100980.53
2023-04-27T08:20:16.820Z,100986.63
2023-04-27T08:22:45.828Z,100983.56
2023-04-27T08:25:13.671Z,100982.09
2023-04-27T08:27:41.777Z,100981.47
2023-04-27T08:30:11.714Z,100984.53
2023-04-27T08:32:40.104Z,100984.09
2023-04-27T08:35:08.353Z,100970.63
2023-04-27T08:37:38.061Z,100970.38
2023-04-27T08:40:08.059Z,100972.63
2023-04-27T08:42:35.942Z,100979.16
2023-04-27T08:45:04.693Z,100980.31
2023-04-27T08:47:42.532Z,100972.53
2023-04-27T08:50:12.764Z,100979.06
2023-04-27T08:52:44.758Z,100975.16
2023-04-27T08:55:15.729Z,100973.72
2023-04-27T08:57:55.363Z,100963.88
2023-04-27T09:00:23.792Z,100964.06
2023-04-27T09:02:51.809Z,100967.94
2023-04-27T09:05:20.686Z,100965.44
2023-04-27T09:08:01.359Z,100969.44
2023-04-27T09:10:30.013Z,100966.75
2023-04-27T09:13:02.443Z,100969.56
2023-04-27T09:15:30.373Z,100958.31
2023-04-27T09:17:58.884Z,100960.31
2023-04-27T09:20:29.188Z,100961.31
2023-04-27T09:22:58.508Z,100957.38
2023-04-27T09:25:28.849Z,100964.06
2023-04-27T09:27:58.578Z,100973.03
2023-04-27T09:30:26.433Z,100970.75
2023-04-27T09:32:56.033Z,100977.25
2023-04-27T09:35:25.059Z,100973.94
2023-04-27T09:37:53.899Z,100965.34
2023-04-27T09:40:27.088Z,100957.81
2023-04-27T09:42:57.912Z,100955.16
2023-04-27T09:45:26.527Z,100954.38
2023-04-27T09:47:55.604Z,100959.13
2023-04-27T09:50:23.553Z,100960.13
2023-04-27T09:52:51.541Z,100960.28
2023-04-27T09:55:26.070Z,100959.63
2023-04-27T09:58:07.761Z,100957.97
2023-04-27T10:00:49.792Z,100940.28
2023-04-27T10:03:24.810Z,100952.47
2023-04-27T10:06:37.224Z,100935.59
2023-04-27T10:09:06.628Z,100940.25
2023-04-27T10:11:40.075Z,100934.88
2023-04-27T10:14:11.832Z,100934.22
2023-04-27T10:16:47.105Z,100939.69
2023-04-27T10:19:15.641Z,100936.34
2023-04-27T10:21:54.915Z,100938.94
2023-04-27T10:24:33.614Z,100931.47
2023-04-27T10:27:07.099Z,100923.63
2023-04-27T10:29:41.822Z,100923.75
2023-04-27T10:32:11.964Z,100925.53
2023-04-27T10:34:41.531Z,100927.53
2023-04-27T10:37:10.916Z,100922.91
2023-04-27T10:39:48.450Z,100920.34
2023-04-27T10:42:28.615Z,100909.25
2023-04-27T10:44:59.659Z,100915.38
2023-04-27T10:47:38.690Z,100911.69
2023-04-27T10:50:08.925Z,100894.41
2023-04-27T10:52:36.750Z,100899.75
2023-04-27T10:55:18.537Z,100891.03
2023-04-27T10:57:51.042Z,100891.63
2023-04-27T11:00:26.113Z,100889.31
2023-04-27T11:02:54.702Z,100894.78
2023-04-27T11:05:29.641Z,100895.72
2023-04-27T11:08:06.984Z,100891.19
2023-04-27T11:10:36.252Z,100886.78
2023-04-27T11:13:11.636Z,100878.78
2023-04-27T11:15:51.879Z,100881.59
2023-04-27T11:18:21.313Z,100882.75
2023-04-27T11:20:51.705Z,100889.81
2023-04-27T11:23:26.862Z,100887.03
2023-04-27T11:25:55.241Z,100877.75
2023-04-27T11:28:24.103Z,100873.34
2023-04-27T11:30:59.728Z,100870.78
2023-04-27T11:33:27.993Z,100862.53
2023-04-27T11:35:56.661Z,100860.81
2023-04-27T11:38:25.184Z,100871.84
2023-04-27T11:41:03.519Z,100868.84
2023-04-27T11:43:31.737Z,100875.31
2023-04-27T11:46:04.099Z,100861.75
2023-04-27T11:48:32.329Z,100859.03
2023-04-27T11:51:01.448Z,100859.50
2023-04-27T11:53:34.413Z,100854.41
2023-04-27T11:56:05.120Z,100858.44
2023-04-27T11:58:35.514Z,100849.47
2023-04-27T12:01:05.499Z,100839.13
2023-04-27T12:03:33.736Z,100837.41
2023-04-27T12:08:33.387Z,100844.72
2023-04-27T12:11:01.220Z,100839.69
2023-04-27T12:13:29.091Z,100840.28
2023-04-27T12:15:58.465Z,100848.88
2023-04-27T12:18:28.293Z,100845.22
2023-04-27T12:20:56.722Z,100837.56
2023-04-27T12:23:24.537Z,100838.47
2023-04-27T12:25:52.364Z,100831.59
2023-04-27T12:28:21.007Z,100825.78
2023-04-27T12:30:49.783Z,100827.38
2023-04-27T12:33:17.726Z,100822.69
2023-04-27T12:35:46.894Z,100819.56
2023-04-27T12:38:14.681Z,100818.25
2023-04-27T12:40:42.556Z,100814.75
2023-04-27T12:43:10.996Z,100820.72
2023-04-27T12:45:38.775Z,100798.28
2023-04-27T12:48:07.304Z,100811.66
2023-04-27T12:50:38.005Z,100797.22
2023-04-27T12:53:07.388Z,100809.41
2023-04-27T12:55:35.228Z,100806.00
2023-04-27T12:58:04.762Z,100804.69
2023-04-27T13:00:32.575Z,100800.81
2023-04-27T13:03:00.559Z,100806.72
2023-04-27T13:05:31.271Z,100804.38
2023-04-27T13:07:59.820Z,100799.03
2023-04-27T13:10:29.681Z,100790.75
2023-04-27T13:12:57.876Z,100781.09
2023-04-27T13:15:25.653Z,100773.06
2023-04-27T13:17:54.902Z,100769.50
2023-04-27T13:20:22.813Z,100767.38
2023-04-27T13:22:50.597Z,100763.97
2023-04-27T13:25:20.435Z,100765.13
2023-04-27T13:27:50.173Z,100752.88
2023-04-27T13:30:18.096Z,100749.47
2023-04-27T13:32:46.474Z,100743.59
2023-04-27T13:35:14.528Z,100742.06
2023-04-27T13:37:42.781Z,100743.41
2023-04-27T13:40:12.751Z,100737.56
2023-04-27T13:42:41.091Z,100743.50
2023-04-27T13:45:11.450Z,100745.44
2023-04-27T13:47:40.836Z,100745.44
2023-04-27T13:50:10.567Z,100746.25
2023-04-27T13:52:40.311Z,100756.47
2023-04-27T13:55:10.219Z,100743.06
2023-04-27T13:57:38.905Z,100744.47
2023-04-27T14:00:11.500Z,100742.06
2023-04-27T14:02:41.065Z,100743.47
2023-04-27T14:05:09.573Z,100739.47
2023-04-27T14:07:37.661Z,100744.81
2023-04-27T14:10:06.296Z,100740.28
2023-04-27T14:12:34.156Z,100727.72
2023-04-27T14:15:02.165Z,100734.09
2023-04-27T14:17:29.924Z,100725.84
2023-04-27T14:20:07.648Z,100722.91
2023-04-27T14:22:36.916Z,100709.78
2023-04-27T14:25:04.962Z,100715.69
2023-04-27T14:27:33.085Z,100719.44
2023-04-27T14:30:02.085Z,100717.81
2023-04-27T14:32:29.891Z,100718.84
2023-04-27T14:34:58.072Z,100720.16
2023-04-27T14:37:27.619Z,100701.91
2023-04-27T14:39:55.327Z,100691.50
2023-04-27T14:42:24.114Z,100702.47
2023-04-27T14:44:51.880Z,100696.53
2023-04-27T14:47:19.808Z,100698.69
2023-04-27T14:49:48.132Z,100696.25
2023-04-27T14:52:15.908Z,100700.81
2023-04-27T14:54:45.068Z,100689.25
2023-04-27T14:57:13.341Z,100686.84
2023-04-27T14:59:41.136Z,100699.66
2023-04-27T15:02:08.913Z,100700.66
2023-04-27T15:04:38.090Z,100697.16
2023-04-27T15:07:06.399Z,100696.59
2023-04-27T15:09:35.047Z,100696.88
2023-04-27T15:12:05.578Z,100693.59
2023-04-27T15:14:33.345Z,100692.25
2023-04-27T15:17:01.270Z,100688.75
2023-04-27T15:19:29.670Z,100695.16
2023-04-27T15:21:57.438Z,100681.22
2023-04-27T15:24:25.248Z,100676.91
2023-04-27T15:26:53.488Z,100667.75
2023-04-27T15:29:22.648Z,100661.28
2023-04-27T15:31:50.707Z,100655.84
2023-04-27T15:34:19.069Z,100647.09
2023-04-27T15:36:46.878Z,100646.28
2023-04-27T15:39:14.833Z,100642.78
2023-04-27T15:41:43.382Z,100639.31
2023-04-27T15:44:11.285Z,100625.94
2023-04-27T15:46:40.463Z,100621.63
2023-04-27T15:49:08.725Z,100620.56
2023-04-27T15:51:36.484Z,100622.44
2023-04-27T15:54:04.436Z,100617.25
2023-04-27T15:56:32.769Z,100629.81
2023-04-27T15:59:00.544Z,100616.22
2023-04-27T16:01:28.506Z,100622.38
2023-04-27T16:03:58.510Z,100621.31
2023-04-27T16:06:31.917Z,100604.19
2023-04-27T16:09:00.580Z,100614.34
2023-04-27T16:11:28.377Z,100604.72
2023-04-27T16:13:56.152Z,100607.13
2023-04-27T16:16:24.699Z,100600.16
2023-04-27T16:18:52.462Z,100596.91
2023-04-27T16:21:21.748Z,100584.59
2023-04-27T16:23:50.218Z,100578.44
2023-04-27T16:26:18.013Z,100566.13
2023-04-27T16:28:45.840Z,100572.28
2023-04-27T16:31:14.490Z,100565.31
2023-04-27T16:33:42.246Z,100569.84
2023-04-27T16:36:12.012Z,100567.91
2023-04-27T16:38:41.807Z,100567.19
2023-04-27T16:41:09.569Z,100573.34
2023-04-27T16:43:37.304Z,100567.19
2023-04-27T16:46:06.662Z,100559.06
2023-04-27T16:48:35.736Z,100567.41
2023-04-27T16:51:03.793Z,100560.44
2023-04-27T16:53:32.160Z,100550.78
2023-04-27T16:56:02.145Z,100540.09
2023-04-27T16:58:30.904Z,100542.72
2023-04-27T17:00:59.491Z,100541.31
2023-04-27T17:03:27.700Z,100529.00
2023-04-27T17:05:55.576Z,100529.44
2023-04-27T17:08:23.894Z,100531.28
2023-04-27T17:10:51.651Z,100529.69
2023-04-27T17:13:20.771Z,100521.91
2023-04-27T17:15:49.332Z,100512.47
2023-04-27T17:18:17.198Z,100528.78
2023-04-27T17:20:44.979Z,100514.94
2023-04-27T17:23:12.939Z,100522.97
2023-04-27T17:25:41.533Z,100515.75
2023-04-27T17:28:09.496Z,100515.47
2023-04-27T17:30:38.985Z,100511.97
2023-04-27T17:33:06.940Z,100522.91
2023-04-27T17:35:34.800Z,100519.34
2023-04-27T17:38:03.037Z,100527.13
2023-04-27T17:40:31.971Z,100531.66
2023-04-27T17:43:00.116Z,100536.47
2023-04-27T17:45:29.082Z,100540.75
2023-04-27T17:47:58.257Z,100539.13
2023-04-27T17:50:26.584Z,100522.28
2023-04-27T17:52:54.791Z,100528.44
2023-04-27T17:55:23.467Z,100533.47
2023-04-27T17:57:51.544Z,100535.06
2023-04-27T18:00:20.013Z,100532.66
2023-04-27T18:02:49.690Z,100531.28
2023-04-27T18:05:19.145Z,100532.31
2023-04-27T18:07:47.422Z,100525.81
2023-04-27T18:10:15.221Z,100534.94
2023-04-27T18:12:43.146Z,100540.53
2023-04-27T18:15:11.851Z,100532.75
2023-04-27T18:17:39.651Z,100531.16
2023-04-27T18:20:10.464Z,100534.84
2023-04-27T18:22:41.647Z,100541.25
2023-04-27T18:25:10.911Z,100538.50
2023-04-27T18:27:38.711Z,100542.72
2023-04-27T18:30:08.777Z,100545.63
2023-04-27T18:32:36.989Z,100544.03
2023-04-27T18:35:05.633Z,100539.97
2023-04-27T18:37:33.969Z,100541.81
2023-04-27T18:40:04.854Z,100539.16
2023-04-27T18:42:32.668Z,100538.34
2023-04-27T18:45:01.809Z,100531.38
2023-04-27T18:47:29.660Z,100532.44
2023-04-27T18:49:57.436Z,100524.44
2023-04-27T18:52:25.817Z,100525.50
2023-04-27T18:54:53.587Z,100516.88
2023-04-27T18:57:23.017Z,100512.34
2023-04-27T18:59:51.313Z,100519.00
2023-04-27T19:02:19.167Z,100519.22
2023-04-27T19:04:52.917Z,100528.09
2023-04-27T19:07:30.367Z,100521.34
2023-04-27T19:09:58.142Z,100522.16
2023-04-27T19:12:27.325Z,100513.59
2023-04-27T19:14:55.646Z,100516.47
2023-04-27T19:17:23.483Z,100506.03
2023-04-27T19:19:51.286Z,100513.50
2023-04-27T19:22:19.615Z,100510.84
2023-04-27T19:24:47.340Z,100512.13
2023-04-27T19:27:15.159Z,100499.81
2023-04-27T19:29:52.580Z,100512.38
2023-04-27T19:32:21.297Z,100504.81
2023-04-27T19:34:49.763Z,100506.94
2023-04-27T19:37:18.228Z,100514.38
2023-04-27T19:39:46.876Z,100506.59
2023-04-27T19:42:15.159Z,100499.66
2023-04-27T19:44:43.531Z,100504.63
2023-04-27T19:47:12.701Z,100506.25
2023-04-27T19:49:40.482Z,100504.88
2023-04-27T19:52:08.809Z,100505.13
2023-04-27T19:54:38.209Z,100496.53
2023-04-27T19:57:06.116Z,100500.25
2023-04-27T19:59:34.270Z,100494.91
2023-04-27T20:02:02.072Z,100504.25
2023-04-27T20:04:31.422Z,100495.63
2023-04-27T20:06:59.952Z,100504.69
2023-04-27T20:09:27.823Z,100500.41
2023-04-27T20:11:56.019Z,100497.97
2023-04-27T20:14:24.718Z,100491.00
2023-04-27T20:16:52.425Z,100493.69
2023-04-27T20:19:20.842Z,100491.50
2023-04-27T20:21:50.259Z,100486.41
2023-04-27T20:24:18.197Z,100490.38
2023-04-27T20:26:46.393Z,100486.31
2023-04-27T20:29:14.480Z,100483.09
2023-04-27T20:31:42.566Z,100477.41
2023-04-27T20:34:10.364Z,100466.16
2023-04-27T20:36:38.354Z,100448.75
2023-04-27T20:39:09.006Z,100446.34
2023-04-27T20:41:38.648Z,100449.47
2023-04-27T20:44:06.269Z,100441.00
2023-04-27T20:46:34.111Z,100436.94
2023-04-27T20:49:02.127Z,100430.50
2023-04-27T20:51:29.982Z,100427.72
2023-04-27T20:53:57.746Z,100418.34
2023-04-27T20:56:27.404Z,100423.13
2023-04-27T20:58:54.968Z,100416.72
2023-04-27T21:01:22.774Z,100417.19
2023-04-27T21:03:51.009Z,100415.81
2023-04-27T21:06:19.231Z,100420.81
2023-04-27T21:08:47.080Z,100417.00
2023-04-27T21:11:17.363Z,100413.78
2023-04-27T21:13:47.289Z,100413.78
2023-04-27T21:16:15.244Z,100411.59
2023-04-27T21:18:43.113Z,100413.44
2023-04-27T21:21:10.916Z,100404.88
2023-04-27T21:23:39.093Z,100394.44
2023-04-27T21:26:08.382Z,100380.53
2023-04-27T21:28:36.931Z,100380.78
2023-04-27T21:31:06.885Z,100366.06
2023-04-27T21:33:34.663Z,100371.63
2023-04-27T21:36:04.591Z,100363.28
2023-04-27T21:38:32.432Z,100360.06
2023-04-27T21:41:00.251Z,100359.72
2023-04-27T21:43:28.522Z,100368.78
2023-04-27T21:45:56.675Z,100370.06
2023-04-27T21:48:25.948Z,100352.44
2023-04-27T21:50:53.749Z,100342.84
2023-04-27T21:53:21.742Z,100351.91
2023-04-27T21:55:51.078Z,100340.59
2023-04-27T21:58:18.859Z,100325.91
2023-04-27T22:00:46.986Z,100321.38
2023-04-27T22:03:14.904Z,100318.16
2023-04-27T22:05:45.392Z,100315.50
2023-04-27T22:08:13.655Z,100318.63
2023-04-27T22:10:41.675Z,100310.88
2023-04-27T22:13:18.991Z,100312.72
2023-04-27T22:15:47.998Z,100320.16
2023-04-27T22:18:16.115Z,100316.66
2023-04-27T22:20:46.365Z,100317.47
2023-04-27T22:23:14.276Z,100312.41
2023-04-27T22:25:43.218Z,100311.34
2023-04-27T22:28:11.813Z,100309.47
2023-04-27T22:30:41.054Z,100295.59
2023-04-27T22:33:09.187Z,100299.06
2023-04-27T22:35:38.439Z,100292.94
2023-04-27T22:38:08.101Z,100290.47
2023-04-27T22:40:36.316Z,100283.78
2023-04-27T22:43:04.231Z,100284.84
2023-04-27T22:45:31.994Z,100283.19
2023-04-27T22:47:59.892Z,100281.59
2023-04-27T22:50:28.117Z,100286.91
2023-04-27T22:52:55.900Z,100279.16
2023-04-27T22:55:25.337Z,100265.84
2023-04-27T22:57:54.157Z,100260.66
2023-04-27T23:00:22.117Z,100271.88
2023-04-27T23:02:50.078Z,100282.56
2023-04-27T23:05:18.444Z,100287.31
2023-04-27T23:07:46.412Z,100288.13
2023-04-27T23:10:15.207Z,100280.34
2023-04-27T23:12:44.679Z,100279.06
2023-04-27T23:15:13.004Z,100271.53
2023-04-27T23:17:41.252Z,100276.66
2023-04-27T23:20:26.618Z,100274.00
2023-04-27T23:22:56.309Z,100279.31
2023-04-27T23:25:24.461Z,100280.13
2023-04-27T23:27:53.611Z,100276.66
2023-04-27T23:30:22.392Z,100281.19
2023-04-27T23:32:50.746Z,100290.22
2023-04-27T23:35:18.706Z,100297.41
2023-04-27T23:37:46.467Z,100302.72
2023-04-27T23:40:14.606Z,100304.03
2023-04-27T23:42:42.405Z,100301.56
2023-04-27T23:45:12.441Z,100309.56
2023-04-27T23:47:43.248Z,100298.34
2023-04-27T23:50:11.727Z,100279.94
2023-04-27T23:52:39.497Z,100276.69
2023-04-27T23:55:08.566Z,100255.88
2023-04-27T23:57:36.332Z,100250.19
